Time;durP1;ratioP1;P1;durP2;ratioP2;P2;SDS_P1;SDS_P2;PMS_P1;PMS_P2;Temp;Humidity;BMP_temperature;BMP_pressure;BME280_temperature;BME280_humidity;BME280_pressure;Samples;Min_cycle;Max_cycle;Signal;HPM_P1;HPM_P2
2022/04/06 00:00:15;;;;;;;;;;;23.40;43.40;;;;;;1570947;73;1133;-67
2022/04/06 00:02:17;;;;;;;;;;;23.40;43.40;;;;;;1574545;73;703;-67
2022/04/06 00:04:19;;;;;;;;;;;23.40;43.50;;;;;;1581364;73;755;-67
2022/04/06 00:06:21;;;;;;;;;;;23.30;43.50;;;;;;1569998;73;783;-66
2022/04/06 00:08:23;;;;;;;;;;;23.30;43.40;;;;;;1571435;73;708;-65
2022/04/06 00:10:25;;;;;;;;;;;23.30;43.50;;;;;;1574524;73;1128;-67
2022/04/06 00:12:27;;;;;;;;;;;23.30;43.50;;;;;;1572363;73;734;-66
2022/04/06 00:14:29;;;;;;;;;;;23.40;43.50;;;;;;1571324;73;1951;-68
2022/04/06 00:16:31;;;;;;;;;;;23.30;43.50;;;;;;1571275;73;795;-64
2022/04/06 00:18:33;;;;;;;;;;;23.30;43.50;;;;;;1571621;73;774;-65
2022/04/06 00:20:35;;;;;;;;;;;23.40;43.50;;;;;;1574614;73;1113;-65
2022/04/06 00:22:36;;;;;;;;;;;23.30;43.50;;;;;;1567455;73;737;-65
2022/04/06 00:24:38;;;;;;;;;;;23.30;43.50;;;;;;1567139;73;673;-65
2022/04/06 00:26:40;;;;;;;;;;;23.30;43.60;;;;;;1567809;73;727;-65
2022/04/06 00:28:42;;;;;;;;;;;23.30;43.60;;;;;;1577718;74;1124;-66
2022/04/06 00:30:44;;;;;;;;;;;23.30;43.60;;;;;;1577583;73;809;-65
2022/04/06 00:32:46;;;;;;;;;;;23.30;43.60;;;;;;1571019;73;670;-65
2022/04/06 00:37:08;;;;;;;;;;;23.30;43.60;;;;;;1569727;73;835;-66
2022/04/06 00:41:14;;;;;;;;;;;23.30;43.60;;;;;;1557345;75;655;-66
2022/04/06 00:43:16;;;;;;;;;;;23.20;43.60;;;;;;1562492;74;815;-67
2022/04/06 00:45:18;;;;;;;;;;;23.30;43.70;;;;;;1560956;74;766;-65
2022/04/06 00:47:20;;;;;;;;;;;23.20;43.60;;;;;;1560968;74;732;-65
2022/04/06 00:49:22;;;;;;;;;;;23.20;43.60;;;;;;1560424;74;1157;-65
2022/04/06 00:51:23;;;;;;;;;;;23.20;43.60;;;;;;1558015;74;716;-67
2022/04/06 00:53:25;;;;;;;;;;;23.20;43.60;;;;;;1558251;75;815;-66
2022/04/06 00:55:35;;;;;;;;;;;23.20;43.60;;;;;;1557564;74;1946;-66
2022/04/06 00:57:38;;;;;;;;;;;23.30;43.70;;;;;;1556868;74;1771;-66
2022/04/06 00:59:40;;;;;;;;;;;23.20;43.60;;;;;;1558636;75;1141;-66
2022/04/06 01:01:42;;;;;;;;;;;23.30;43.60;;;;;;1512826;76;718;-65
2022/04/06 01:03:43;;;;;;;;;;;23.30;43.60;;;;;;1529025;75;792;-66
2022/04/06 01:05:45;;;;;;;;;;;23.30;43.60;;;;;;1551507;74;748;-66
2022/04/06 01:07:49;;;;;;;;;;;23.30;43.60;;;;;;1551647;75;807;-66
2022/04/06 01:09:51;;;;;;;;;;;23.30;43.70;;;;;;1530139;76;1819;-68
2022/04/06 01:11:53;;;;;;;;;;;23.20;43.60;;;;;;1553214;75;739;-65
2022/04/06 01:13:55;;;;;;;;;;;23.20;43.60;;;;;;1551172;75;1943;-67
2022/04/06 01:15:57;;;;;;;;;;;23.20;43.70;;;;;;1548568;75;795;-68
2022/04/06 01:17:59;;;;;;;;;;;23.30;43.80;;;;;;1554025;75;780;-63
2022/04/06 01:20:03;;;;;;;;;;;23.30;43.80;;;;;;1553301;75;1166;-66
2022/04/06 01:22:08;;;;;;;;;;;23.30;43.80;;;;;;1551093;75;778;-69
2022/04/06 01:24:10;;;;;;;;;;;23.20;43.70;;;;;;1551641;75;905;-66
2022/04/06 01:26:12;;;;;;;;;;;23.20;43.80;;;;;;1549419;75;688;-65
2022/04/06 01:28:14;;;;;;;;;;;23.20;43.80;;;;;;1554527;75;846;-65
2022/04/06 01:30:16;;;;;;;;;;;23.30;43.90;;;;;;1552866;75;1138;-67
2022/04/06 01:32:19;;;;;;;;;;;23.30;43.90;;;;;;1550643;75;765;-67
2022/04/06 01:34:20;;;;;;;;;;;23.30;43.90;;;;;;1554411;75;1920;-65
2022/04/06 01:36:22;;;;;;;;;;;23.30;43.90;;;;;;1554507;75;725;-67
2022/04/06 01:38:24;;;;;;;;;;;23.30;43.90;;;;;;1552891;76;779;-67
2022/04/06 01:40:26;;;;;;;;;;;23.30;43.90;;;;;;1565832;74;1144;-67
2022/04/06 01:42:28;;;;;;;;;;;23.30;43.90;;;;;;1561548;76;747;-65
2022/04/06 01:44:31;;;;;;;;;;;23.30;43.90;;;;;;1532570;77;731;-65
2022/04/06 01:46:33;;;;;;;;;;;23.30;44.00;;;;;;1563531;76;791;-66
2022/04/06 01:52:11;;;;;;;;;;;23.30;44.00;;;;;;1549818;76;779;-67
2022/04/06 01:52:58;;;;;;;;;;;23.30;43.90;;;;;;1560400;76;1661;-65
2022/04/06 01:55:01;;;;;;;;;;;23.30;43.90;;;;;;1563330;76;1891;-65
2022/04/06 01:57:04;;;;;;;;;;;23.30;44.00;;;;;;1563550;76;689;-66
2022/04/06 01:59:06;;;;;;;;;;;23.30;44.00;;;;;;1538432;76;1104;-65
2022/04/06 02:01:08;;;;;;;;;;;23.20;43.90;;;;;;1562314;74;774;-67
2022/04/06 02:03:10;;;;;;;;;;;23.30;44.00;;;;;;1557231;76;705;-65
2022/04/06 02:05:12;;;;;;;;;;;23.30;43.90;;;;;;1581534;75;738;-67
2022/04/06 02:07:14;;;;;;;;;;;23.30;44.00;;;;;;1567582;75;759;-65
2022/04/06 02:09:17;;;;;;;;;;;23.30;43.90;;;;;;1563717;75;1144;-69
2022/04/06 02:11:19;;;;;;;;;;;23.30;44.00;;;;;;1563548;76;784;-66
2022/04/06 02:13:21;;;;;;;;;;;23.30;44.10;;;;;;1563640;76;666;-66
2022/04/06 02:15:22;;;;;;;;;;;23.30;44.00;;;;;;1563475;76;1939;-68
2022/04/06 02:17:26;;;;;;;;;;;23.30;44.00;;;;;;1563739;76;710;-65
2022/04/06 02:19:28;;;;;;;;;;;23.30;44.00;;;;;;1563342;75;1196;-66
2022/04/06 02:21:30;;;;;;;;;;;23.20;43.90;;;;;;1563545;76;713;-64
2022/04/06 02:23:32;;;;;;;;;;;23.20;43.90;;;;;;1563497;76;793;-65
2022/04/06 02:25:34;;;;;;;;;;;23.30;44.10;;;;;;1563283;76;765;-65
2022/04/06 02:27:37;;;;;;;;;;;23.30;44.00;;;;;;1563715;76;659;-66
2022/04/06 02:29:43;;;;;;;;;;;23.20;43.90;;;;;;1562535;75;1959;-62
2022/04/06 02:31:43;;;;;;;;;;;23.20;43.90;;;;;;1562078;76;943;-65
2022/04/06 02:33:44;;;;;;;;;;;23.20;43.90;;;;;;1563315;76;726;-66
2022/04/06 02:35:46;;;;;;;;;;;23.30;44.00;;;;;;1563440;76;1942;-66
2022/04/06 02:37:49;;;;;;;;;;;23.30;44.00;;;;;;1563657;76;561;-66
2022/04/06 02:39:50;;;;;;;;;;;23.30;44.10;;;;;;1563672;75;1151;-65
2022/04/06 02:41:53;;;;;;;;;;;23.30;44.00;;;;;;1563288;76;665;-65
2022/04/06 02:43:55;;;;;;;;;;;23.30;44.00;;;;;;1563592;76;841;-65
2022/04/06 02:45:57;;;;;;;;;;;23.30;44.00;;;;;;1563655;76;691;-69
2022/04/06 02:47:58;;;;;;;;;;;23.30;44.00;;;;;;1557630;76;612;-66
2022/04/06 02:50:00;;;;;;;;;;;23.30;43.90;;;;;;1537262;77;1150;-64
2022/04/06 02:52:02;;;;;;;;;;;23.30;43.90;;;;;;1537150;77;731;-65
2022/04/06 02:54:04;;;;;;;;;;;23.30;43.90;;;;;;1537168;77;820;-64
2022/04/06 02:56:06;;;;;;;;;;;23.30;43.90;;;;;;1560469;76;1924;-64
2022/04/06 02:58:08;;;;;;;;;;;23.30;43.90;;;;;;1560160;74;845;-63
2022/04/06 03:00:10;;;;;;;;;;;23.30;44.00;;;;;;1557520;76;1123;-63
2022/04/06 03:02:12;;;;;;;;;;;23.30;44.10;;;;;;1561104;76;709;-63
2022/04/06 03:04:14;;;;;;;;;;;23.30;44.00;;;;;;1560692;76;733;-63
2022/04/06 03:06:16;;;;;;;;;;;23.30;44.00;;;;;;1561898;76;728;-66
2022/04/06 03:08:18;;;;;;;;;;;23.30;44.10;;;;;;1560087;76;742;-64
2022/04/06 03:10:20;;;;;;;;;;;23.40;44.00;;;;;;1560408;74;1103;-64
2022/04/06 03:12:22;;;;;;;;;;;23.40;44.00;;;;;;1560382;76;759;-64
2022/04/06 03:14:24;;;;;;;;;;;23.30;44.00;;;;;;1560203;76;1942;-66
2022/04/06 03:16:26;;;;;;;;;;;23.40;43.90;;;;;;1562934;76;796;-63
2022/04/06 03:18:28;;;;;;;;;;;23.30;43.90;;;;;;1563468;76;735;-63
2022/04/06 03:20:30;;;;;;;;;;;23.40;44.00;;;;;;1563625;76;1172;-63
2022/04/06 03:22:32;;;;;;;;;;;23.30;44.00;;;;;;1562825;76;730;-62
2022/04/06 03:24:33;;;;;;;;;;;23.30;43.90;;;;;;1560168;76;700;-64
2022/04/06 03:26:35;;;;;;;;;;;23.30;44.00;;;;;;1562339;76;788;-63
2022/04/06 03:28:42;;;;;;;;;;;23.40;44.00;;;;;;1562743;76;803;-65
2022/04/06 03:30:41;;;;;;;;;;;23.40;44.00;;;;;;1558722;75;1132;-63
2022/04/06 03:32:43;;;;;;;;;;;23.40;44.00;;;;;;1562226;76;713;-64
2022/04/06 03:34:45;;;;;;;;;;;23.40;43.90;;;;;;1559725;76;1947;-63
2022/04/06 03:36:46;;;;;;;;;;;23.30;43.90;;;;;;1559241;76;728;-64
2022/04/06 03:38:48;;;;;;;;;;;23.40;43.90;;;;;;1562596;74;800;-64
2022/04/06 03:40:50;;;;;;;;;;;23.30;43.90;;;;;;1561422;74;1104;-64
2022/04/06 03:42:52;;;;;;;;;;;23.30;43.90;;;;;;1561606;75;966;-64
2022/04/06 03:44:54;;;;;;;;;;;23.30;43.90;;;;;;1561852;74;743;-65
2022/04/06 03:46:56;;;;;;;;;;;23.40;43.90;;;;;;1557199;74;716;-63
2022/04/06 03:48:58;;;;;;;;;;;23.40;43.90;;;;;;1560980;76;827;-64
2022/04/06 03:51:00;;;;;;;;;;;23.30;44.00;;;;;;1562548;75;1168;-63
2022/04/06 03:53:01;;;;;;;;;;;23.40;43.90;;;;;;1555289;76;918;-65
2022/04/06 03:55:05;;;;;;;;;;;23.50;44.10;;;;;;1569059;75;1936;-64
2022/04/06 03:57:07;;;;;;;;;;;23.30;43.90;;;;;;1575791;75;748;-65
2022/04/06 03:59:09;;;;;;;;;;;23.40;43.90;;;;;;1566225;75;1183;-65
2022/04/06 04:01:11;;;;;;;;;;;23.40;44.00;;;;;;1559199;74;769;-69
2022/04/06 04:03:13;;;;;;;;;;;23.40;43.90;;;;;;1564878;76;605;-65
2022/04/06 04:05:15;;;;;;;;;;;23.30;43.90;;;;;;1551168;76;713;-65
2022/04/06 04:07:21;;;;;;;;;;;23.40;43.90;;;;;;1535907;77;842;-66
2022/04/06 04:09:22;;;;;;;;;;;23.30;44.00;;;;;;1535832;77;1132;-66
2022/04/06 04:11:24;;;;;;;;;;;23.40;43.90;;;;;;1545730;76;767;-65
2022/04/06 04:13:26;;;;;;;;;;;23.40;44.00;;;;;;1563287;76;643;-64
2022/04/06 04:15:29;;;;;;;;;;;23.30;44.00;;;;;;1563490;76;1926;-65
2022/04/06 04:17:31;;;;;;;;;;;23.30;44.00;;;;;;1563534;76;798;-65
2022/04/06 04:19:33;;;;;;;;;;;23.30;43.90;;;;;;1563346;75;1176;-65
2022/04/06 04:21:35;;;;;;;;;;;23.30;44.00;;;;;;1563660;76;779;-65
2022/04/06 04:23:37;;;;;;;;;;;23.30;44.00;;;;;;1563281;75;647;-65
2022/04/06 04:25:39;;;;;;;;;;;23.30;44.00;;;;;;1563328;76;734;-65
2022/04/06 04:27:41;;;;;;;;;;;23.30;44.00;;;;;;1563669;76;741;-66
2022/04/06 04:29:43;;;;;;;;;;;23.40;44.00;;;;;;1562125;75;1165;-64
2022/04/06 04:31:45;;;;;;;;;;;23.30;44.00;;;;;;1561414;74;772;-66
2022/04/06 04:33:47;;;;;;;;;;;23.30;44.00;;;;;;1558364;74;767;-67
2022/04/06 04:35:49;;;;;;;;;;;23.30;44.00;;;;;;1562639;76;1946;-66
2022/04/06 04:37:51;;;;;;;;;;;23.30;44.00;;;;;;1563225;76;740;-65
2022/04/06 04:39:53;;;;;;;;;;;23.40;43.90;;;;;;1562339;75;1126;-66
2022/04/06 04:41:54;;;;;;;;;;;23.30;44.10;;;;;;1559801;76;798;-62
2022/04/06 04:43:56;;;;;;;;;;;23.30;44.20;;;;;;1563611;76;599;-64
2022/04/06 04:45:58;;;;;;;;;;;23.40;44.20;;;;;;1562721;76;700;-63
2022/04/06 04:48:00;;;;;;;;;;;23.30;44.10;;;;;;1563057;76;733;-64
2022/04/06 04:50:02;;;;;;;;;;;23.30;44.00;;;;;;1560518;74;1105;-60
2022/04/06 04:52:05;;;;;;;;;;;23.50;44.20;;;;;;1563568;76;775;-63
2022/04/06 04:54:07;;;;;;;;;;;23.40;44.10;;;;;;1563612;76;650;-62
2022/04/06 04:56:09;;;;;;;;;;;23.40;44.00;;;;;;1563290;76;1931;-64
2022/04/06 04:58:11;;;;;;;;;;;23.40;43.90;;;;;;1563565;76;703;-63
2022/04/06 05:00:13;;;;;;;;;;;23.50;44.10;;;;;;1562540;75;1163;-62
2022/04/06 05:02:15;;;;;;;;;;;23.50;44.00;;;;;;1562626;76;745;-64
2022/04/06 05:04:17;;;;;;;;;;;23.40;43.80;;;;;;1559177;75;754;-64
2022/04/06 05:06:19;;;;;;;;;;;23.40;43.80;;;;;;1575200;74;714;-64
2022/04/06 05:08:21;;;;;;;;;;;23.50;44.00;;;;;;1565132;74;834;-62
2022/04/06 05:10:23;;;;;;;;;;;23.50;44.10;;;;;;1580915;73;1134;-63
2022/04/06 05:12:26;;;;;;;;;;;23.50;43.90;;;;;;1585334;74;810;-62
2022/04/06 05:14:28;;;;;;;;;;;23.50;43.80;;;;;;1569325;74;702;-64
2022/04/06 05:16:31;;;;;;;;;;;23.50;43.90;;;;;;1560652;74;1944;-60
2022/04/06 05:18:32;;;;;;;;;;;23.50;43.90;;;;;;1553715;75;754;-62
2022/04/06 05:20:34;;;;;;;;;;;23.40;43.80;;;;;;1545770;75;1171;-62
2022/04/06 05:22:36;;;;;;;;;;;23.50;43.90;;;;;;1547890;76;751;-66
2022/04/06 05:24:38;;;;;;;;;;;23.40;43.70;;;;;;1560554;76;802;-64
2022/04/06 05:26:40;;;;;;;;;;;23.50;43.90;;;;;;1537808;74;747;-65
2022/04/06 05:28:42;;;;;;;;;;;23.50;43.90;;;;;;1562039;74;785;-61
2022/04/06 05:30:45;;;;;;;;;;;23.50;43.80;;;;;;1562717;74;1128;-62
2022/04/06 05:32:49;;;;;;;;;;;23.50;43.60;;;;;;1556919;74;734;-62
2022/04/06 05:34:51;;;;;;;;;;;23.60;43.40;;;;;;1561895;74;682;-64
2022/04/06 05:36:52;;;;;;;;;;;23.60;43.50;;;;;;1564047;75;1973;-62
2022/04/06 05:38:55;;;;;;;;;;;23.60;43.50;;;;;;1552558;76;770;-62
2022/04/06 05:40:57;;;;;;;;;;;23.50;43.50;;;;;;1562265;75;1084;-64
2022/04/06 05:42:59;;;;;;;;;;;23.50;43.60;;;;;;1562858;76;812;-62
2022/04/06 05:45:01;;;;;;;;;;;23.50;43.60;;;;;;1561089;74;775;-63
2022/04/06 05:47:03;;;;;;;;;;;23.40;43.40;;;;;;1563514;74;723;-63
2022/04/06 05:49:05;;;;;;;;;;;23.50;43.50;;;;;;1554790;74;1173;-62
2022/04/06 05:51:07;;;;;;;;;;;23.50;43.50;;;;;;1559268;76;788;-62
2022/04/06 05:53:09;;;;;;;;;;;23.50;43.50;;;;;;1563163;75;719;-62
2022/04/06 05:55:11;;;;;;;;;;;23.40;43.40;;;;;;1566617;74;746;-63
2022/04/06 05:57:13;;;;;;;;;;;23.40;43.30;;;;;;1561729;74;1923;-62
2022/04/06 05:59:14;;;;;;;;;;;23.30;43.40;;;;;;1560506;75;1148;-61
2022/04/06 06:01:16;;;;;;;;;;;23.30;43.40;;;;;;1561347;75;796;-61
2022/04/06 06:03:18;;;;;;;;;;;23.30;43.40;;;;;;1558742;75;763;-66
2022/04/06 06:05:20;;;;;;;;;;;23.40;43.40;;;;;;1562520;75;732;-63
2022/04/06 06:07:22;;;;;;;;;;;23.30;43.40;;;;;;1562114;75;736;-62
2022/04/06 06:09:24;;;;;;;;;;;23.30;43.40;;;;;;1561651;75;1137;-62
2022/04/06 06:11:26;;;;;;;;;;;23.30;43.40;;;;;;1559859;75;700;-62
2022/04/06 06:13:28;;;;;;;;;;;23.30;43.30;;;;;;1560664;75;689;-63
2022/04/06 06:15:29;;;;;;;;;;;23.30;43.30;;;;;;1561850;75;1946;-63
2022/04/06 06:17:31;;;;;;;;;;;23.30;43.20;;;;;;1561012;75;821;-63
2022/04/06 06:19:33;;;;;;;;;;;23.30;43.30;;;;;;1561201;75;1178;-62
2022/04/06 06:21:35;;;;;;;;;;;23.40;43.20;;;;;;1561016;75;812;-62
2022/04/06 06:23:37;;;;;;;;;;;23.30;43.20;;;;;;1561318;75;801;-62
2022/04/06 06:25:39;;;;;;;;;;;23.30;43.10;;;;;;1559786;75;799;-63
2022/04/06 06:27:42;;;;;;;;;;;23.30;43.20;;;;;;1557363;75;727;-62
2022/04/06 06:29:43;;;;;;;;;;;23.30;43.20;;;;;;1559796;75;1149;-61
2022/04/06 06:31:45;;;;;;;;;;;23.30;43.20;;;;;;1558476;75;761;-62
2022/04/06 06:33:47;;;;;;;;;;;23.30;43.20;;;;;;1560465;75;716;-61
2022/04/06 06:35:49;;;;;;;;;;;23.40;43.10;;;;;;1557086;75;1934;-62
2022/04/06 06:37:52;;;;;;;;;;;23.30;43.10;;;;;;1560419;75;799;-62
2022/04/06 06:39:54;;;;;;;;;;;23.30;43.20;;;;;;1558386;73;3130;-67
2022/04/06 06:41:56;;;;;;;;;;;23.30;43.20;;;;;;1561705;75;726;-64
2022/04/06 06:43:58;;;;;;;;;;;23.30;43.20;;;;;;1563137;74;774;-68
2022/04/06 06:46:00;;;;;;;;;;;23.40;43.20;;;;;;1563187;75;702;-64
2022/04/06 06:48:02;;;;;;;;;;;23.30;43.10;;;;;;1562949;75;850;-65
2022/04/06 06:50:04;;;;;;;;;;;23.30;43.10;;;;;;1565973;74;1203;-66
2022/04/06 06:52:06;;;;;;;;;;;23.30;43.10;;;;;;1568489;75;732;-66
2022/04/06 06:54:08;;;;;;;;;;;23.40;43.10;;;;;;1568338;75;929;-65
2022/04/06 06:56:10;;;;;;;;;;;23.30;43.10;;;;;;1566073;74;1918;-65
2022/04/06 06:58:12;;;;;;;;;;;23.40;42.90;;;;;;1566980;74;823;-65
2022/04/06 07:00:14;;;;;;;;;;;23.40;42.90;;;;;;1566428;74;1132;-64
2022/04/06 07:02:16;;;;;;;;;;;23.40;42.90;;;;;;1571780;74;768;-67
2022/04/06 07:04:18;;;;;;;;;;;23.50;42.90;;;;;;1565707;74;724;-69
2022/04/06 07:06:20;;;;;;;;;;;23.40;42.70;;;;;;1567417;74;792;-64
2022/04/06 07:08:22;;;;;;;;;;;23.50;42.80;;;;;;1566855;74;894;-69
2022/04/06 07:10:24;;;;;;;;;;;23.50;42.80;;;;;;1563379;74;1132;-64
2022/04/06 07:12:26;;;;;;;;;;;23.60;42.70;;;;;;1563020;74;692;-64
2022/04/06 07:14:28;;;;;;;;;;;23.50;42.70;;;;;;1566203;74;729;-64
2022/04/06 07:16:29;;;;;;;;;;;23.60;42.60;;;;;;1565655;74;1939;-65
2022/04/06 07:18:32;;;;;;;;;;;23.60;42.60;;;;;;1566367;74;752;-65
2022/04/06 07:20:35;;;;;;;;;;;23.60;42.60;;;;;;1565931;74;1153;-66
2022/04/06 07:22:37;;;;;;;;;;;23.60;42.60;;;;;;1566766;74;729;-67
2022/04/06 07:24:40;;;;;;;;;;;23.60;42.50;;;;;;1564957;74;785;-65
2022/04/06 07:26:42;;;;;;;;;;;23.60;42.50;;;;;;1566565;74;896;-67
2022/04/06 07:28:48;;;;;;;;;;;23.60;42.40;;;;;;1572356;74;732;-64
2022/04/06 07:30:48;;;;;;;;;;;23.50;42.40;;;;;;1569816;74;1276;-65
2022/04/06 07:32:50;;;;;;;;;;;23.50;42.40;;;;;;1552445;75;793;-63
2022/04/06 07:34:51;;;;;;;;;;;23.50;42.60;;;;;;1553489;76;737;-66
2022/04/06 07:36:53;;;;;;;;;;;23.40;42.50;;;;;;1552948;76;1950;-64
2022/04/06 07:38:55;;;;;;;;;;;23.40;42.60;;;;;;1553368;76;752;-65
2022/04/06 07:40:57;;;;;;;;;;;23.40;42.60;;;;;;1550755;76;1122;-64
2022/04/06 07:42:59;;;;;;;;;;;23.30;42.70;;;;;;1546527;75;726;-64
2022/04/06 07:45:13;;;;;;;;;;;23.30;42.70;;;;;;1546958;75;763;-66
2022/04/06 07:47:10;;;;;;;;;;;23.20;42.70;;;;;;1549983;75;1882;-66
2022/04/06 07:49:11;;;;;;;;;;;23.30;42.90;;;;;;1564377;74;739;-67
2022/04/06 07:51:13;;;;;;;;;;;23.30;42.80;;;;;;1561114;74;1113;-65
2022/04/06 07:53:17;;;;;;;;;;;23.30;42.90;;;;;;1547607;76;759;-65
2022/04/06 07:55:19;;;;;;;;;;;23.30;42.70;;;;;;1555773;75;719;-67
2022/04/06 07:57:21;;;;;;;;;;;23.30;42.60;;;;;;1572255;74;1938;-66
2022/04/06 07:59:23;;;;;;;;;;;23.30;42.60;;;;;;1553024;76;1126;-66
2022/04/06 08:01:25;;;;;;;;;;;23.30;42.60;;;;;;1554198;76;733;-66
2022/04/06 08:03:27;;;;;;;;;;;23.30;42.50;;;;;;1552345;75;786;-66
2022/04/06 08:05:29;;;;;;;;;;;23.30;42.50;;;;;;1553965;76;679;-66
2022/04/06 08:07:31;;;;;;;;;;;23.50;42.60;;;;;;1554600;76;717;-66
2022/04/06 08:09:33;;;;;;;;;;;23.40;42.30;;;;;;1548541;76;1128;-67
2022/04/06 08:11:35;;;;;;;;;;;23.40;42.30;;;;;;1557008;75;726;-67
2022/04/06 08:13:37;;;;;;;;;;;23.50;42.40;;;;;;1550618;76;675;-68
2022/04/06 08:15:39;;;;;;;;;;;23.50;42.40;;;;;;1574908;75;678;-67
2022/04/06 08:17:42;;;;;;;;;;;23.50;42.50;;;;;;1567917;74;1946;-65
2022/04/06 08:19:44;;;;;;;;;;;23.40;42.30;;;;;;1572017;75;1859;-65
2022/04/06 08:21:50;;;;;;;;;;;23.40;42.40;;;;;;1570614;74;715;-65
2022/04/06 08:23:55;;;;;;;;;;;23.40;42.50;;;;;;1570719;75;767;-65
2022/04/06 08:26:18;;;;;;;;;;;23.30;42.50;;;;;;1572829;74;701;-65
2022/04/06 08:28:20;;;;;;;;;;;23.30;42.50;;;;;;1566735;74;726;-65
2022/04/06 08:30:22;;;;;;;;;;;23.20;42.60;;;;;;1571802;74;1151;-65
2022/04/06 08:32:24;;;;;;;;;;;23.10;42.90;;;;;;1571249;74;744;-66
2022/04/06 08:34:27;;;;;;;;;;;23.10;43.20;;;;;;1571008;74;750;-64
2022/04/06 08:36:28;;;;;;;;;;;23.00;43.30;;;;;;1570797;74;1934;-67
2022/04/06 08:38:30;;;;;;;;;;;23.10;43.50;;;;;;1572582;75;788;-67
2022/04/06 08:40:33;;;;;;;;;;;23.00;43.50;;;;;;1570872;75;1117;-66
2022/04/06 08:42:41;;;;;;;;;;;23.00;43.60;;;;;;1571204;74;721;-66
2022/04/06 08:44:44;;;;;;;;;;;23.00;43.60;;;;;;1569863;75;753;-64
2022/04/06 08:46:46;;;;;;;;;;;23.00;43.60;;;;;;1570092;75;728;-65
2022/04/06 08:48:48;;;;;;;;;;;22.90;43.70;;;;;;1572881;75;763;-66
2022/04/06 08:50:51;;;;;;;;;;;22.90;43.70;;;;;;1570118;75;1161;-64
2022/04/06 08:52:53;;;;;;;;;;;22.90;43.80;;;;;;1559440;75;779;-63
2022/04/06 08:54:55;;;;;;;;;;;22.80;43.60;;;;;;1585688;75;692;-66
2022/04/06 08:56:57;;;;;;;;;;;22.80;43.70;;;;;;1582355;75;1949;-65
2022/04/06 08:59:00;;;;;;;;;;;22.90;43.90;;;;;;1589255;75;764;-67
2022/04/06 09:01:02;;;;;;;;;;;22.90;43.90;;;;;;1583179;75;1129;-66
2022/04/06 09:03:04;;;;;;;;;;;22.80;43.70;;;;;;1550078;75;701;-64
2022/04/06 09:05:07;;;;;;;;;;;22.80;43.70;;;;;;1558298;76;779;-66
2022/04/06 09:07:09;;;;;;;;;;;22.90;43.90;;;;;;1552820;76;740;-65
2022/04/06 09:09:11;;;;;;;;;;;22.90;43.90;;;;;;1539349;76;647;-66
2022/04/06 09:11:13;;;;;;;;;;;22.80;43.70;;;;;;1582739;74;1104;-65
2022/04/06 09:13:18;;;;;;;;;;;22.80;43.70;;;;;;1552141;76;658;-66
2022/04/06 09:15:21;;;;;;;;;;;22.80;43.70;;;;;;1557418;76;655;-68
2022/04/06 09:17:23;;;;;;;;;;;22.90;43.80;;;;;;1554270;76;1927;-66
2022/04/06 09:19:25;;;;;;;;;;;22.80;43.70;;;;;;1547520;75;1140;-66
2022/04/06 09:21:27;;;;;;;;;;;22.80;43.70;;;;;;1555679;76;799;-65
2022/04/06 09:23:32;;;;;;;;;;;22.80;43.70;;;;;;1589053;74;786;-66
2022/04/06 09:25:38;;;;;;;;;;;22.80;43.70;;;;;;1565632;74;797;-62
2022/04/06 09:27:44;;;;;;;;;;;22.80;43.60;;;;;;1578625;74;733;-64
2022/04/06 09:29:45;;;;;;;;;;;22.80;43.60;;;;;;1562244;74;1845;-65
2022/04/06 09:31:48;;;;;;;;;;;22.80;43.60;;;;;;1567112;74;1969;-67
2022/04/06 09:34:00;;;;;;;;;;;22.80;43.60;;;;;;1580856;74;743;-66
2022/04/06 09:36:02;;;;;;;;;;;22.80;43.60;;;;;;1551625;76;812;-66
2022/04/06 09:38:10;;;;;;;;;;;22.80;43.60;;;;;;1541633;76;1968;-64
2022/04/06 09:40:13;;;;;;;;;;;22.80;43.60;;;;;;1581749;75;1122;-67
2022/04/06 09:42:23;;;;;;;;;;;22.80;43.90;;;;;;1577732;75;828;-66
2022/04/06 09:49:05;;;;;;;;;;;22.80;44.20;;;;;;1570352;74;1622;-65
2022/04/06 09:51:09;;;;;;;;;;;22.80;44.20;;;;;;1570109;74;1144;-66
2022/04/06 09:53:11;;;;;;;;;;;22.80;44.20;;;;;;1570119;74;900;-65
2022/04/06 09:55:14;;;;;;;;;;;22.80;44.10;;;;;;1569894;74;686;-67
2022/04/06 09:57:16;;;;;;;;;;;22.70;44.20;;;;;;1569971;74;1935;-65
2022/04/06 09:59:18;;;;;;;;;;;22.70;44.20;;;;;;1569824;74;665;-66
2022/04/06 10:01:19;;;;;;;;;;;22.90;44.20;;;;;;1570269;74;1147;-66
2022/04/06 10:03:21;;;;;;;;;;;22.80;44.10;;;;;;1572652;74;724;-64
2022/04/06 10:05:23;;;;;;;;;;;22.80;44.00;;;;;;1570181;74;743;-66
2022/04/06 10:07:25;;;;;;;;;;;22.80;44.00;;;;;;1570027;74;723;-64
2022/04/06 10:09:27;;;;;;;;;;;22.80;44.00;;;;;;1570347;74;1145;-64
2022/04/06 10:11:29;;;;;;;;;;;22.90;43.90;;;;;;1570238;74;793;-64
2022/04/06 10:13:31;;;;;;;;;;;23.00;43.40;;;;;;1570240;74;705;-64
2022/04/06 10:15:34;;;;;;;;;;;23.00;43.10;;;;;;1570303;75;650;-66
2022/04/06 10:17:36;;;;;;;;;;;23.10;43.10;;;;;;1570187;74;1906;-65
2022/04/06 10:19:39;;;;;;;;;;;23.10;43.00;;;;;;1570005;74;1168;-66
2022/04/06 10:21:53;;;;;;;;;;;23.10;43.00;;;;;;1570222;76;702;-64
2022/04/06 10:24:06;;;;;;;;;;;23.00;42.90;;;;;;1566529;74;1624;-65
2022/04/06 10:26:09;;;;;;;;;;;23.00;42.90;;;;;;1571405;74;768;-66
2022/04/06 10:28:11;;;;;;;;;;;23.00;42.90;;;;;;1571364;75;1864;-67
2022/04/06 10:30:17;;;;;;;;;;;23.10;43.00;;;;;;1570483;75;1070;-67
2022/04/06 10:32:37;;;;;;;;;;;23.00;42.80;;;;;;1570225;74;799;-65
2022/04/06 10:34:39;;;;;;;;;;;23.10;42.90;;;;;;1571935;74;681;-66
2022/04/06 10:36:42;;;;;;;;;;;23.10;42.80;;;;;;1557572;74;765;-64
2022/04/06 10:39:02;;;;;;;;;;;23.00;42.70;;;;;;1570186;75;1918;-63
2022/04/06 10:41:07;;;;;;;;;;;23.00;42.80;;;;;;1568381;74;1120;-65
2022/04/06 10:43:10;;;;;;;;;;;22.90;42.80;;;;;;1569184;74;776;-65
2022/04/06 10:45:13;;;;;;;;;;;22.90;42.90;;;;;;1551846;74;1492;-64
2022/04/06 10:47:15;;;;;;;;;;;22.80;42.80;;;;;;1560782;74;1789;-66
2022/04/06 10:49:17;;;;;;;;;;;22.90;43.00;;;;;;1567043;75;717;-65
2022/04/06 10:51:34;;;;;;;;;;;22.90;43.00;;;;;;1570633;74;1271;-65
2022/04/06 10:53:35;;;;;;;;;;;22.80;42.90;;;;;;1568910;74;1802;-66
2022/04/06 10:55:40;;;;;;;;;;;22.90;43.00;;;;;;1572349;74;657;-65
2022/04/06 10:57:43;;;;;;;;;;;22.80;42.90;;;;;;1560404;74;1905;-64
2022/04/06 10:59:47;;;;;;;;;;;22.80;42.90;;;;;;1559451;76;1672;-64
2022/04/06 11:01:48;;;;;;;;;;;22.90;43.10;;;;;;1564205;76;1082;-64
2022/04/06 11:03:58;;;;;;;;;;;22.80;43.00;;;;;;1570216;74;796;-63
2022/04/06 11:06:00;;;;;;;;;;;22.70;43.00;;;;;;1561681;75;677;-65
2022/04/06 11:10:22;;;;;;;;;;;22.80;43.10;;;;;;1566186;75;1645;-66
2022/04/06 11:12:28;;;;;;;;;;;22.80;43.10;;;;;;1572111;74;742;-65
2022/04/06 11:14:30;;;;;;;;;;;22.80;43.10;;;;;;1570585;75;737;-65
2022/04/06 11:16:45;;;;;;;;;;;22.80;43.10;;;;;;1570244;75;809;-64
2022/04/06 11:18:47;;;;;;;;;;;22.80;43.10;;;;;;1566188;75;1942;-63
2022/04/06 11:20:49;;;;;;;;;;;22.70;43.10;;;;;;1572365;75;1167;-63
2022/04/06 11:22:53;;;;;;;;;;;22.70;43.10;;;;;;1534626;76;997;-65
2022/04/06 11:24:55;;;;;;;;;;;22.90;43.20;;;;;;1566522;74;1662;-66
2022/04/06 11:26:57;;;;;;;;;;;22.90;43.20;;;;;;1570212;74;703;-65
2022/04/06 11:28:59;;;;;;;;;;;22.80;43.10;;;;;;1570110;74;806;-66
2022/04/06 11:31:04;;;;;;;;;;;22.80;43.10;;;;;;1570395;74;1102;-64
2022/04/06 11:33:06;;;;;;;;;;;22.80;43.10;;;;;;1570256;74;745;-64
2022/04/06 11:35:08;;;;;;;;;;;22.80;43.10;;;;;;1570537;74;749;-66
2022/04/06 11:37:10;;;;;;;;;;;22.80;43.10;;;;;;1572354;74;763;-65
2022/04/06 11:39:13;;;;;;;;;;;22.80;43.10;;;;;;1571483;74;2014;-65
2022/04/06 11:41:15;;;;;;;;;;;22.80;43.10;;;;;;1568678;74;1112;-63
2022/04/06 11:43:17;;;;;;;;;;;22.80;43.10;;;;;;1570070;74;787;-64
2022/04/06 11:45:23;;;;;;;;;;;22.70;43.10;;;;;;1562849;74;808;-66
2022/04/06 11:47:29;;;;;;;;;;;22.80;43.10;;;;;;1570378;75;785;-65
2022/04/06 11:49:31;;;;;;;;;;;22.80;43.10;;;;;;1570318;74;1163;-65
2022/04/06 11:51:33;;;;;;;;;;;22.80;43.10;;;;;;1570496;74;716;-63
2022/04/06 11:53:36;;;;;;;;;;;22.90;43.10;;;;;;1570216;74;692;-63
2022/04/06 11:55:49;;;;;;;;;;;22.80;42.90;;;;;;1570763;74;741;-63
2022/04/06 11:57:51;;;;;;;;;;;22.80;42.90;;;;;;1569875;75;1938;-65
2022/04/06 11:59:53;;;;;;;;;;;22.90;43.10;;;;;;1557503;75;1150;-63
2022/04/06 12:01:55;;;;;;;;;;;22.80;42.90;;;;;;1546978;76;784;-65
2022/04/06 12:03:58;;;;;;;;;;;22.80;43.00;;;;;;1571464;74;689;-64
2022/04/06 12:06:01;;;;;;;;;;;22.90;43.10;;;;;;1548113;76;723;-66
2022/04/06 12:08:07;;;;;;;;;;;23.00;43.10;;;;;;1583179;74;640;-64
2022/04/06 12:10:09;;;;;;;;;;;22.90;42.80;;;;;;1563545;76;1125;-65
2022/04/06 12:12:11;;;;;;;;;;;22.90;42.80;;;;;;1545394;75;741;-65
2022/04/06 12:14:13;;;;;;;;;;;22.90;42.80;;;;;;1570414;76;725;-65
2022/04/06 12:16:15;;;;;;;;;;;23.00;42.70;;;;;;1570288;76;664;-65
2022/04/06 12:18:18;;;;;;;;;;;23.00;42.80;;;;;;1569217;74;2125;-64
2022/04/06 12:20:23;;;;;;;;;;;23.00;42.80;;;;;;1572152;75;1172;-67
2022/04/06 12:22:26;;;;;;;;;;;23.00;42.80;;;;;;1555489;76;779;-64
2022/04/06 12:24:39;;;;;;;;;;;23.00;42.80;;;;;;1553771;75;653;-64